Hlavní strana
METAR-TAF:

METAR-TAF

Letiště :

Bodensee

Friedrichshafen, Německo

zeměpisná šířka: 47-40N, zeměpisná délka: 009-31E, výška: 416 m

Aktuální stav počasí

Zpráva byla vytvořena před 29 minutami, v 01:20 UTC
Severovýchodní vítr 4 kt
Teplota 17°C
Vlhkost vzduchu 88%
Tlak 1022 hPa
Viditelnost 10 km a více

METAR: EDNY 190120Z AUTO 05004KT 9999 // NCD 17/15 Q1022

Čas: 03:49 (01:49 UTC)

Předpověď počasí

Zpráva byla vytvořena před 2 hodinami a 49 minutami, v 23:00 UTC
Předpověď platná od 19 v 00 UTC do 19 v 24 UTC
vítr z různých směrů 2 kt
Viditelnost 10 km a více
Skoro jasno ve výšce 5500 ft
Změna
od 19 v 09 UTC do 19 v 11 UTC
Západojihozápadní vítr 5 kt
Změna
od 19 v 16 UTC do 19 v 18 UTC
vítr z různých směrů 2 kt

TAF: EDNY 182300Z 1900/1924 VRB02KT 9999 FEW055 BECMG 1909/1911 24005KT BECMG 1916/1918 VRB02KT

Stav a předpovědi počasí z více než 4 000 letišť (zprávy METAR a TAF).

Červené a žluté tečky na mapě představují dostupné meteorologické stanice.

Když kurzor umístíte na tečku, zobrazí se název stanice.

Pak kliknutím zobrazíte stav a předpověď počasí.

Chcete-li změnit mapu, kliknutím na zelené tlačítko se znaménkem +mapu přiblížíte, kliknutím na zelené tlačítko se znaménkem – mapu oddálíte a kliknutím na zelené šipky přejdete na sousední mapy.


METAR-TAF: